createdAt,value
2024-01-15T04:54:01.999Z,34.60
2024-01-15T04:57:05.070Z,30.80
2024-01-15T05:00:08.265Z,32.63
2024-01-15T05:03:11.013Z,40.40
2024-01-15T05:06:13.724Z,37.20
2024-01-15T05:09:16.344Z,30.30
2024-01-15T05:12:18.941Z,37.78
2024-01-15T05:15:21.523Z,41.33
2024-01-15T05:18:24.200Z,36.80
2024-01-15T05:21:26.859Z,38.67
2024-01-15T05:24:29.390Z,39.60
2024-01-15T05:27:31.882Z,43.08
2024-01-15T05:30:34.532Z,39.85
2024-01-15T05:33:37.206Z,40.95
2024-01-15T05:36:40.186Z,43.63
2024-01-15T05:39:42.695Z,39.37
2024-01-15T05:42:45.220Z,43.28
2024-01-15T05:45:47.897Z,42.40
2024-01-15T05:48:50.556Z,43.35
2024-01-15T05:51:53.227Z,40.88
2024-01-15T05:54:55.799Z,41.87
2024-01-15T05:57:58.930Z,44.15
2024-01-15T06:01:01.662Z,44.95
2024-01-15T06:04:04.634Z,40.50
2024-01-15T06:07:07.308Z,38.53
2024-01-15T06:10:10.390Z,46.13
2024-01-15T06:13:12.938Z,40.92
2024-01-15T06:16:17.007Z,42.67
2024-01-15T06:19:19.600Z,41.00
2024-01-15T06:22:22.162Z,40.45
2024-01-15T06:25:24.652Z,51.37
2024-01-15T06:28:27.179Z,42.47
2024-01-15T06:31:30.050Z,55.20
2024-01-15T06:34:32.585Z,50.58
2024-01-15T06:37:35.170Z,46.00
2024-01-15T06:40:37.694Z,40.83
2024-01-15T06:43:40.375Z,39.97
2024-01-15T06:46:47.761Z,44.30
2024-01-15T06:49:51.880Z,44.33
2024-01-15T06:52:54.499Z,47.80
2024-01-15T06:55:57.168Z,47.63
2024-01-15T06:59:00.028Z,43.80
2024-01-15T07:02:02.672Z,45.47
2024-01-15T07:05:06.446Z,43.03
2024-01-15T07:08:09.156Z,35.78
2024-01-15T07:11:11.802Z,38.60
2024-01-15T07:14:14.436Z,40.05
2024-01-15T07:17:16.998Z,32.50
2024-01-15T07:20:20.694Z,33.45
2024-01-15T07:23:23.212Z,41.08
2024-01-15T07:26:26.519Z,38.40
2024-01-15T07:29:30.128Z,31.80
2024-01-15T07:32:32.958Z,34.05
2024-01-15T07:35:35.540Z,33.78
2024-01-15T07:38:38.508Z,41.00
2024-01-15T07:41:41.064Z,38.30
2024-01-15T07:44:43.565Z,40.67
2024-01-15T07:47:50.332Z,36.83
2024-01-15T07:50:55.759Z,40.40
2024-01-15T07:53:58.635Z,38.40
2024-01-15T08:00:34.461Z,35.85
2024-01-15T08:03:45.654Z,40.13
2024-01-15T08:07:38.230Z,45.78
2024-01-15T08:11:34.422Z,33.13
2024-01-15T08:15:09.261Z,42.33
2024-01-15T08:18:14.696Z,40.75
2024-01-15T08:21:17.482Z,38.53
2024-01-15T08:24:20.216Z,42.13
2024-01-15T08:27:22.784Z,39.53
2024-01-15T08:30:29.564Z,45.67
2024-01-15T08:33:34.871Z,36.70
2024-01-15T08:36:37.869Z,39.90
2024-01-15T08:39:40.419Z,44.88
2024-01-15T08:42:44.691Z,38.05
2024-01-15T08:46:00.861Z,38.93
2024-01-15T08:49:07.271Z,39.13
2024-01-15T08:52:22.356Z,32.33
2024-01-15T08:55:25.173Z,38.83
2024-01-15T08:59:03.723Z,36.35
2024-01-15T09:02:20.578Z,39.53
2024-01-15T09:05:32.471Z,36.58
2024-01-15T09:08:35.945Z,36.20
2024-01-15T09:11:38.605Z,35.22
2024-01-15T09:14:41.616Z,34.08
2024-01-15T09:17:45.023Z,37.03
2024-01-15T09:20:47.568Z,34.10
2024-01-15T09:23:50.203Z,38.65
2024-01-15T09:26:52.830Z,31.50
2024-01-15T09:29:56.335Z,35.20
2024-01-15T09:32:59.786Z,43.13
2024-01-15T09:36:07.647Z,39.30
2024-01-15T09:39:12.354Z,34.85
2024-01-15T09:42:21.063Z,28.73
2024-01-15T09:45:27.368Z,25.67
2024-01-15T09:48:35.197Z,22.47
2024-01-15T09:51:38.529Z,28.88
2024-01-15T09:54:43.515Z,24.00
2024-01-15T09:57:47.794Z,32.45
2024-01-15T10:00:51.637Z,29.85
2024-01-15T10:03:56.163Z,34.83
2024-01-15T10:06:59.292Z,31.27
2024-01-15T10:10:01.924Z,42.80
2024-01-15T10:13:05.523Z,29.27
2024-01-15T10:16:08.025Z,33.20
2024-01-15T10:19:14.922Z,34.07
2024-01-15T10:22:19.393Z,41.78
2024-01-15T10:25:27.034Z,41.80
2024-01-15T10:28:31.454Z,26.60
2024-01-15T10:31:34.334Z,26.88
2024-01-15T10:34:53.875Z,19.13
2024-01-15T10:37:57.558Z,26.83
2024-01-15T10:41:00.124Z,24.30
2024-01-15T10:44:05.076Z,41.67
2024-01-15T10:47:08.099Z,38.50
2024-01-15T10:50:11.582Z,36.93
2024-01-15T10:53:16.707Z,36.72
2024-01-15T10:56:20.028Z,40.17
2024-01-15T10:59:28.146Z,40.55
2024-01-15T11:02:31.281Z,19.05
2024-01-15T11:05:46.009Z,38.50
2024-01-15T11:08:54.588Z,34.60
2024-01-15T11:12:10.193Z,21.02
2024-01-15T11:15:21.756Z,24.83
2024-01-15T11:18:24.683Z,27.30
2024-01-15T11:21:28.856Z,29.20
2024-01-15T11:24:42.626Z,42.55
2024-01-15T11:27:49.146Z,23.27
2024-01-15T11:31:14.446Z,32.25
2024-01-15T11:34:23.262Z,61.20
2024-01-15T11:37:55.754Z,62.53
2024-01-15T11:41:03.395Z,41.15
2024-01-15T11:44:06.544Z,29.92
2024-01-15T11:47:16.719Z,41.88
2024-01-15T11:50:19.782Z,44.08
2024-01-15T11:53:30.052Z,32.17
2024-01-15T11:56:32.743Z,33.83
2024-01-15T11:59:35.809Z,27.27
2024-01-15T12:02:40.204Z,29.63
2024-01-15T12:05:45.726Z,30.25
2024-01-15T12:08:48.345Z,25.83
2024-01-15T12:12:01.371Z,31.45
2024-01-15T12:15:04.845Z,31.30
2024-01-15T12:18:09.319Z,22.88
2024-01-15T12:21:11.972Z,17.92
2024-01-15T12:24:14.634Z,23.47
2024-01-15T12:27:24.692Z,21.15
2024-01-15T12:30:35.380Z,18.25
2024-01-15T12:33:38.325Z,25.13
2024-01-15T12:36:41.998Z,23.48
2024-01-15T12:39:45.344Z,22.90
2024-01-15T12:42:48.143Z,28.65
2024-01-15T12:45:52.071Z,22.45
2024-01-15T12:48:54.714Z,20.73
2024-01-15T12:52:34.746Z,20.73
2024-01-15T12:55:37.956Z,13.43
2024-01-15T12:58:40.863Z,19.58
2024-01-15T13:10:06.573Z,15.18
2024-01-15T13:13:57.060Z,19.40
2024-01-15T13:17:04.143Z,16.27
2024-01-15T13:20:11.062Z,16.42
2024-01-15T13:23:14.020Z,21.70
2024-01-15T13:26:16.621Z,29.40
2024-01-15T13:29:19.405Z,55.83
2024-01-15T13:32:29.189Z,64.97
2024-01-15T13:35:32.209Z,43.38
2024-01-15T13:38:37.476Z,59.38
2024-01-15T13:41:40.094Z,64.18
2024-01-15T13:44:43.829Z,48.47
2024-01-15T13:47:46.482Z,56.78
2024-01-15T13:50:49.071Z,41.88
2024-01-15T13:53:52.069Z,41.22
2024-01-15T13:56:54.635Z,44.00
2024-01-15T13:59:57.198Z,37.87
2024-01-15T14:02:59.779Z,33.15
2024-01-15T14:06:09.808Z,36.97
2024-01-15T14:09:15.584Z,29.40
2024-01-15T14:12:18.194Z,25.60
2024-01-15T14:15:22.832Z,21.60
2024-01-15T14:18:25.539Z,19.60
2024-01-15T14:21:28.185Z,26.27
2024-01-15T14:24:30.786Z,21.35
2024-01-15T14:27:34.057Z,25.90
2024-01-15T14:30:36.807Z,22.33
2024-01-15T14:33:40.808Z,25.52
2024-01-15T14:36:44.037Z,17.58
2024-01-15T14:39:47.156Z,31.10
2024-01-15T14:42:50.157Z,27.13
2024-01-15T14:45:52.778Z,27.90
2024-01-15T14:48:55.666Z,22.27
2024-01-15T14:51:58.857Z,33.45
2024-01-15T14:55:02.285Z,21.38
2024-01-15T14:58:05.826Z,21.35
2024-01-15T15:01:08.572Z,17.17
2024-01-15T15:04:11.857Z,19.10
2024-01-15T15:07:14.571Z,21.73
2024-01-15T15:10:17.302Z,14.77
2024-01-15T15:13:29.500Z,16.42
2024-01-15T15:16:36.779Z,14.43
2024-01-15T15:19:40.958Z,18.25
2024-01-15T15:22:44.112Z,22.02
2024-01-15T15:25:46.716Z,18.98
2024-01-15T15:28:50.182Z,22.95
2024-01-15T15:31:53.121Z,24.93
2024-01-15T15:34:56.156Z,28.65
2024-01-15T15:37:58.758Z,23.92
2024-01-15T15:41:02.102Z,21.63
2024-01-15T15:44:05.167Z,19.17
2024-01-15T15:47:07.981Z,39.20
2024-01-15T15:50:10.992Z,22.98
2024-01-15T15:53:14.038Z,27.02
2024-01-15T15:56:16.793Z,38.17
2024-01-15T15:59:19.910Z,46.47
2024-01-15T16:02:22.577Z,55.23
2024-01-15T16:05:31.361Z,31.83
2024-01-15T16:08:40.413Z,23.60
2024-01-15T16:11:43.019Z,26.08
2024-01-15T16:14:45.599Z,20.63
2024-01-15T16:23:17.128Z,20.37
2024-01-15T16:23:35.527Z,24.50
2024-01-15T16:24:42.500Z,20.10
2024-01-15T16:27:53.377Z,16.52
2024-01-15T16:31:02.188Z,22.80
2024-01-15T16:34:09.759Z,6.30
2024-01-15T16:37:14.247Z,37.80
2024-01-15T16:40:16.961Z,7.82
2024-01-15T16:43:19.679Z,16.20
2024-01-15T16:46:23.022Z,10.95
2024-01-15T16:49:25.653Z,6.50
2024-01-15T16:52:28.233Z,8.38
2024-01-15T16:55:31.025Z,10.18
2024-01-15T16:58:33.836Z,9.52
2024-01-15T17:01:36.631Z,5.18
2024-01-15T17:04:39.687Z,6.63
2024-01-15T17:07:42.622Z,11.82
2024-01-15T17:10:45.549Z,12.13
2024-01-15T17:13:48.379Z,11.65
2024-01-15T17:16:51.221Z,6.67
2024-01-15T17:19:55.080Z,9.55
2024-01-15T17:22:59.228Z,14.45
2024-01-15T17:26:03.311Z,13.60
2024-01-15T17:29:06.278Z,10.77
2024-01-15T17:32:09.121Z,9.70
2024-01-15T17:35:12.053Z,14.52
2024-01-15T17:38:15.232Z,14.77
2024-01-15T17:41:18.167Z,10.30
2024-01-15T17:44:20.730Z,14.32
2024-01-15T17:47:23.588Z,9.17
2024-01-15T17:50:26.148Z,13.65
2024-01-15T17:53:29.032Z,13.20
2024-01-15T17:56:32.206Z,8.02
2024-01-15T17:59:35.385Z,14.52
2024-01-15T18:02:39.692Z,20.07
2024-01-15T18:05:42.537Z,19.15
2024-01-15T18:08:45.643Z,19.05
2024-01-15T18:11:48.377Z,21.60
2024-01-15T18:14:51.116Z,37.13
2024-01-15T18:17:54.485Z,53.15
2024-01-15T18:20:57.372Z,34.72
2024-01-15T18:24:00.189Z,26.67
2024-01-15T18:27:04.679Z,30.85
2024-01-15T18:30:07.871Z,21.77
2024-01-15T18:33:10.688Z,24.77
2024-01-15T18:36:13.556Z,23.15
2024-01-15T18:39:17.991Z,22.88
2024-01-15T18:42:20.813Z,25.58
2024-01-15T18:45:23.470Z,21.80
2024-01-15T18:48:26.171Z,31.15
2024-01-15T18:51:28.900Z,28.27
2024-01-15T18:54:31.701Z,37.03
2024-01-15T18:57:34.332Z,42.45
2024-01-15T19:00:38.091Z,32.17
2024-01-15T19:03:41.142Z,21.63
2024-01-15T19:06:45.461Z,23.35
2024-01-15T19:09:49.393Z,26.15
2024-01-15T19:12:52.013Z,30.90
2024-01-15T19:15:55.243Z,27.07
2024-01-15T19:18:57.941Z,26.08
2024-01-15T19:22:00.564Z,18.67
2024-01-15T19:25:03.376Z,27.00
2024-01-15T19:28:06.998Z,23.83
2024-01-15T19:31:10.395Z,40.47
